Ulsteinvik  Ulsteinvik


Beaufortskalaen  Beaufortskalaen


Clouds and precipitation  Clouds and precipitation


Rain radar more information rain snow radar


No particular awareness of the weather is required.    There are no Weather-warnings

Nearby METAR Reports

   
ENAL - Ålesund
Updated: 26-10-2020 14:20
Few Clouds  
Few Clouds  
   Wind: SSW 5.1 m/s
Wind: SSW 5.1 m/s
Temperature: 12°C
Dew Point: 4°C
Humidity: 58%
Barometer: 992 hPa
Clouds: Few Clouds
Visibility: More than 10 km
Cloud details: Few Clouds 1676.4 m
ENAL 261320Z 20010KT 9999 FEW055 12/04 Q0992
ENOV - Ørsta
Updated: 26-10-2020 13:50
Partly Cloudy  
Partly Cloudy  
   Wind: varies 2.6 m/s
Wind: varies 2.6 m/s
Temperature: 12°C
Dew Point: 1°C
Humidity: 47%
Barometer: 992 hPa
Clouds: Partly Cloudy
Visibility: More than 10 km
Cloud details: Partly Cloudy 1828.8 m
ENOV 261250Z VRB05KT 9999 SCT060 12/01 Q0992 RMK WIND 2175FT 15013KT
ENML - Tafjorden
Updated: 26-10-2020 14:20
Partly Cloudy  
Partly Cloudy  
   Wind: East 2.1 m/s
Wind: East 2.1 m/s
Temperature: 11°C
Dew Point: 5°C
Humidity: 67%
Barometer: 992 hPa
Clouds: Partly Cloudy
Visibility: More than 10 km
Cloud details: Few Clouds 1828.8 m,
Partly Cloudy 3962.4 m
ENML 261320Z 08004KT 9999 FEW060 SCT130 11/05 Q0992
ENML - Molde
Updated: 26-10-2020 14:20
Partly Cloudy  
Partly Cloudy  
   Wind: East 2.1 m/s
Wind: East 2.1 m/s
Temperature: 11°C
Dew Point: 5°C
Humidity: 67%
Barometer: 992 hPa
Clouds: Partly Cloudy
Visibility: More than 10 km
Cloud details: Few Clouds 1828.8 m,
Partly Cloudy 3962.4 m
ENML 261320Z 08004KT 9999 FEW060 SCT130 11/05 Q0992
ENFL - Florø
Updated: 26-10-2020 14:20
Nearby Showers, Mostly Cloudy  
Nearby Showers, Mostly Cloudy  
   Wind: SSE 7.2 m/s
Wind: SSE 7.2 m/s
Temperature: 12°C
Dew Point: 5°C
Humidity: 63%
Barometer: 993 hPa
Clouds: Mostly Cloudy
Visibility: More than 10 km
Cloud details: Few Clouds 762 m,
Mostly Cloudy 1341.1 m
ENFL 261320Z 16014KT 9999 VCSH FEW025TCU BKN044 12/05 Q0993
ENVA - Trondheim
Updated: 26-10-2020 14:20
Clear  
Clear  
   Wind: East 2.1 m/s
Wind: East 2.1 m/s
Temperature: 12°C
Dew Point: 2°C
Humidity: 51%
Barometer: 995 hPa
Visibility: More than 10 km
Cloud details: Clear
ENVA 261320Z 08004KT CAVOK 12/02 Q0995 NOSIG RMK WIND 670FT 16008KT
ENBR - Bergen
Updated: 26-10-2020 14:20
Nearby Showers, Mostly Cloudy  
Nearby Showers, Mostly Cloudy  
   Wind: SSE 6.2 m/s
Wind: SSE 6.2 m/s
Temperature: 9°C
Wind Chill: 6°C
Dew Point: 5°C
Humidity: 76%
Barometer: 993 hPa
Clouds: Mostly Cloudy
Visibility: More than 10 km
Cloud details: Few Clouds 548.6 m,
Partly Cloudy 914.4 m,
Mostly Cloudy 1737.4 m
ENBR 261320Z 15012KT 9999 VCSH FEW018CB SCT030 BKN057 09/05 Q0993 TEMPO SHRAGS BKN012CB RMK WIND 1200FT 14021KT
ENZV - Stavanger
Updated: 26-10-2020 14:20
Nearby Showers, Partly Cloudy  
Nearby Showers, Partly Cloudy  
   Wind: SE 5.1 m/s
Wind: SE 5.1 m/s
Temperature: 11°C
Dew Point: 8°C
Humidity: 82%
Barometer: 993 hPa
Clouds: Partly Cloudy
Visibility: More than 10 km
Cloud details: Few Clouds 457.2 m,
Partly Cloudy 1828.8 m
ENZV 261320Z 13010KT 9999 VCSH FEW015CB SCT060 11/08 Q0993 TEMPO SHRA BKN014CB
ENGM - Oslo
Updated: 26-10-2020 14:20
Mostly Cloudy  
Mostly Cloudy  
   Wind: East 1.5 m/s
Wind: East 1.5 m/s
Temperature: 9°C
Wind Chill: 8°C
Dew Point: 7°C
Humidity: 87%
Barometer: 998 hPa
Clouds: Mostly Cloudy
Visibility: More than 10 km
Cloud details: Few Clouds 426.7 m,
Mostly Cloudy 518.2 m
ENGM 261320Z 09003KT 020V140 9999 FEW014 BKN017 09/07 Q0998 TEMPO 4000 SHRA BKN008 FEW020CB
ESSA - Stockholm
Updated: 26-10-2020 14:20
Mostly Cloudy  
Mostly Cloudy  
   Wind: South 2.1 m/s
Wind: South 2.1 m/s
Temperature: 11°C
Dew Point: 10°C
Humidity: 94%
Barometer: 1002 hPa
Clouds: Mostly Cloudy
Visibility: More than 10 km
Cloud details: Partly Cloudy 274.3 m,
Mostly Cloudy 518.2 m
ESSA 261320Z 17004KT 9999 SCT009 BKN017 11/10 Q1002 TEMPO SCT010
EKCH - København
Updated: 26-10-2020 14:20
Rain, Mostly Cloudy  
Rain, Mostly Cloudy  
   Wind: South 5.1 m/s
Wind: South 5.1 m/s
Temperature: 12°C
Dew Point: 11°C
Humidity: 94%
Barometer: 1001 hPa
Clouds: Mostly Cloudy
Visibility: 7 km
Cloud details: Partly Cloudy 182.9 m,
Mostly Cloudy 365.8 m
EKCH 261320Z 17010KT 7000 RA SCT006 BKN012 12/11 Q1001 NOSIG
ENHV - Nordkapp
Updated: 26-10-2020 13:50
Mostly Cloudy  
Mostly Cloudy  
   Wind: South 11.8 m/s
Wind: South 11.8 m/s
Temperature: 3°C
Wind Chill: -3°C
Dew Point: 1°C
Humidity: 87%
Barometer: 996 hPa
Clouds: Mostly Cloudy
Visibility: More than 10 km
Cloud details: Few Clouds 487.7 m,
Mostly Cloudy 1981.2 m
ENHV 261250Z 19023KT 9999 FEW016 BKN065 03/01 Q0996
ENSB - Svalbard
Updated: 26-10-2020 14:20
Few Clouds  
Few Clouds  
   Wind: ESE 3.6 m/s
Wind: ESE 3.6 m/s
Temperature: -5°C
Wind Chill: -10°C
Dew Point: -10°C
Humidity: 68%
Barometer: 1006 hPa
Clouds: Few Clouds
Visibility: More than 10 km
Cloud details: Few Clouds 1219.2 m
ENSB 261320Z 12007KT 9999 FEW040 M05/M10 Q1006 NOSIG RMK WIND 1400FT VRB03KT
NZSP - Sørpolen
Updated: 26-10-2020 12:50
NOT Current
Blowing, Snow, Overcast  
Blowing, Snow, Overcast  
   Wind: North 9.3 m/s
Wind: North 9.3 m/s
Temperature: -45°C
Wind Chill: -66°C
Barometer: 974.9 hPa
Clouds: Overcast
Visibility: 1.2 km
Cloud details: Mostly Cloudy,
Overcast 457.2 m
NZSP 261150Z 35018KT 1200 BLSN BKN000 OVC015 M45/ A2879 RMK PK WND 33028/1040 BLSN BKN000 CLN AIR 02015KT ALL WNDS GRID SDG/HDP
 

Script developed by  Saratoga-weather.org Adapted for the template by  Weerstation Leuven

Equipment we use:

Weather-station
Davis VP2+ 24/H Fars, Online-Ups, 4G Backup.

Weather-program
Weather Display

Weather-server
Custom builds pcs

Provider
Hosted By Pro Isp

Davis VP2+ 24/H Fars, Online-Ups, 4G Backup.

Weather Display

Custom builds pcs

Hosted By Pro Isp